sensor_id;sensor_type;location;lat;lon;timestamp;pressure;altitude;pressure_sealevel;temperature;humidity
61205;BME280;47068;55.780;37.520;2022-10-22T00:01:27;100376.03;;;8.20;70.63
61205;BME280;47068;55.780;37.520;2022-10-22T00:03:53;100376.56;;;8.14;70.74
61205;BME280;47068;55.780;37.520;2022-10-22T00:06:19;100370.31;;;8.15;71.01
61205;BME280;47068;55.780;37.520;2022-10-22T00:08:47;100359.84;;;8.14;70.81
61205;BME280;47068;55.780;37.520;2022-10-22T00:11:18;100352.94;;;8.02;70.70
61205;BME280;47068;55.780;37.520;2022-10-22T00:13:44;100365.25;;;8.12;70.74
61205;BME280;47068;55.780;37.520;2022-10-22T00:16:10;100368.63;;;8.14;70.69
61205;BME280;47068;55.780;37.520;2022-10-22T00:18:36;100368.63;;;8.14;70.29
61205;BME280;47068;55.780;37.520;2022-10-22T00:21:02;100362.47;;;8.14;70.11
61205;BME280;47068;55.780;37.520;2022-10-22T00:23:30;100368.03;;;8.11;70.11
61205;BME280;47068;55.780;37.520;2022-10-22T00:25:55;100361.63;;;8.13;70.62
61205;BME280;47068;55.780;37.520;2022-10-22T00:28:21;100363.56;;;8.11;70.56
61205;BME280;47068;55.780;37.520;2022-10-22T00:30:46;100329.44;;;7.87;70.58
61205;BME280;47068;55.780;37.520;2022-10-22T00:33:12;100358.94;;;8.04;70.95
61205;BME280;47068;55.780;37.520;2022-10-22T00:35:38;100354.75;;;8.01;70.47
61205;BME280;47068;55.780;37.520;2022-10-22T00:38:03;100326.59;;;7.79;71.15
61205;BME280;47068;55.780;37.520;2022-10-22T00:40:30;100332.41;;;7.94;70.59
61205;BME280;47068;55.780;37.520;2022-10-22T00:42:55;100353.75;;;8.02;70.36
61205;BME280;47068;55.780;37.520;2022-10-22T00:45:26;100344.59;;;8.06;70.05
61205;BME280;47068;55.780;37.520;2022-10-22T00:48:03;100353.25;;;8.08;70.71
61205;BME280;47068;55.780;37.520;2022-10-22T00:50:37;100352.72;;;8.14;70.74
61205;BME280;47068;55.780;37.520;2022-10-22T00:53:09;100357.50;;;8.20;70.38
61205;BME280;47068;55.780;37.520;2022-10-22T00:55:36;100354.44;;;8.25;70.19
61205;BME280;47068;55.780;37.520;2022-10-22T00:58:02;100355.56;;;8.22;70.00
61205;BME280;47068;55.780;37.520;2022-10-22T01:00:27;100352.75;;;8.24;70.07
61205;BME280;47068;55.780;37.520;2022-10-22T01:02:53;100357.78;;;8.27;70.18
61205;BME280;47068;55.780;37.520;2022-10-22T01:05:19;100357.91;;;8.25;69.81
61205;BME280;47068;55.780;37.520;2022-10-22T01:07:50;100362.00;;;8.29;70.09
61205;BME280;47068;55.780;37.520;2022-10-22T01:10:23;100348.56;;;8.21;69.88
61205;BME280;47068;55.780;37.520;2022-10-22T01:13:10;100352.91;;;8.22;69.72
61205;BME280;47068;55.780;37.520;2022-10-22T01:15:58;100360.56;;;8.25;69.69
61205;BME280;47068;55.780;37.520;2022-10-22T01:29:51;100359.84;;;8.23;70.35
61205;BME280;47068;55.780;37.520;2022-10-22T01:32:24;100361.41;;;8.26;69.91
61205;BME280;47068;55.780;37.520;2022-10-22T01:34:57;100364.19;;;8.24;69.79
61205;BME280;47068;55.780;37.520;2022-10-22T01:37:28;100332.31;;;8.05;69.99
61205;BME280;47068;55.780;37.520;2022-10-22T01:39:56;100363.50;;;8.22;70.07
61205;BME280;47068;55.780;37.520;2022-10-22T01:42:22;100356.13;;;8.26;70.32
61205;BME280;47068;55.780;37.520;2022-10-22T01:44:48;100361.28;;;8.27;70.27
61205;BME280;47068;55.780;37.520;2022-10-22T01:47:26;100361.16;;;8.29;70.13
61205;BME280;47068;55.780;37.520;2022-10-22T01:53:04;100361.22;;;8.39;69.64
61205;BME280;47068;55.780;37.520;2022-10-22T01:58:13;100363.69;;;8.30;70.22
61205;BME280;47068;55.780;37.520;2022-10-22T02:00:50;100374.28;;;8.30;70.21
61205;BME280;47068;55.780;37.520;2022-10-22T02:03:25;100364.66;;;8.29;69.85
61205;BME280;47068;55.780;37.520;2022-10-22T02:06:04;100355.41;;;8.24;70.04
61205;BME280;47068;55.780;37.520;2022-10-22T02:08:35;100365.38;;;8.32;70.21
61205;BME280;47068;55.780;37.520;2022-10-22T02:11:02;100348.81;;;8.18;70.17
61205;BME280;47068;55.780;37.520;2022-10-22T02:13:35;100369.59;;;8.34;70.27
61205;BME280;47068;55.780;37.520;2022-10-22T02:16:06;100352.44;;;8.17;69.85
61205;BME280;47068;55.780;37.520;2022-10-22T02:18:34;100356.91;;;8.17;70.28
61205;BME280;47068;55.780;37.520;2022-10-22T02:21:00;100347.41;;;8.14;70.24
61205;BME280;47068;55.780;37.520;2022-10-22T02:23:27;100369.00;;;8.30;70.01
61205;BME280;47068;55.780;37.520;2022-10-22T02:25:54;100376.94;;;8.30;70.10
61205;BME280;47068;55.780;37.520;2022-10-22T02:28:26;100371.66;;;8.30;70.06
61205;BME280;47068;55.780;37.520;2022-10-22T02:30:56;100368.66;;;8.24;70.06
61205;BME280;47068;55.780;37.520;2022-10-22T02:33:38;100373.41;;;8.30;70.10
61205;BME280;47068;55.780;37.520;2022-10-22T02:36:07;100379.00;;;8.27;69.84
61205;BME280;47068;55.780;37.520;2022-10-22T02:38:35;100386.25;;;8.25;70.12
61205;BME280;47068;55.780;37.520;2022-10-22T02:41:01;100380.94;;;8.25;70.12
61205;BME280;47068;55.780;37.520;2022-10-22T02:43:30;100388.75;;;8.26;70.21
61205;BME280;47068;55.780;37.520;2022-10-22T02:46:02;100391.16;;;8.29;70.44
61205;BME280;47068;55.780;37.520;2022-10-22T02:48:28;100395.63;;;8.29;70.35
61205;BME280;47068;55.780;37.520;2022-10-22T02:50:59;100385.28;;;8.26;69.99
61205;BME280;47068;55.780;37.520;2022-10-22T02:53:24;100390.44;;;8.27;70.28
61205;BME280;47068;55.780;37.520;2022-10-22T02:55:50;100348.19;;;8.05;70.23
61205;BME280;47068;55.780;37.520;2022-10-22T02:58:15;100389.84;;;8.24;69.81
61205;BME280;47068;55.780;37.520;2022-10-22T03:00:43;100389.28;;;8.20;70.42
61205;BME280;47068;55.780;37.520;2022-10-22T03:03:08;100385.94;;;8.18;69.88
61205;BME280;47068;55.780;37.520;2022-10-22T03:05:34;100371.34;;;8.03;70.63
61205;BME280;47068;55.780;37.520;2022-10-22T03:08:02;100387.50;;;8.21;70.59
61205;BME280;47068;55.780;37.520;2022-10-22T03:10:34;100393.63;;;8.21;70.56
61205;BME280;47068;55.780;37.520;2022-10-22T03:13:07;100341.63;;;8.00;70.73
61205;BME280;47068;55.780;37.520;2022-10-22T03:15:33;100391.53;;;8.25;70.40
61205;BME280;47068;55.780;37.520;2022-10-22T03:18:00;100388.16;;;8.23;70.13
61205;BME280;47068;55.780;37.520;2022-10-22T03:20:26;100388.88;;;8.25;70.95
61205;BME280;47068;55.780;37.520;2022-10-22T03:22:51;100343.44;;;7.99;70.38
61205;BME280;47068;55.780;37.520;2022-10-22T03:25:20;100385.16;;;8.27;70.49
61205;BME280;47068;55.780;37.520;2022-10-22T03:27:47;100381.78;;;8.25;70.66
61205;BME280;47068;55.780;37.520;2022-10-22T03:30:17;100377.19;;;8.27;70.67
61205;BME280;47068;55.780;37.520;2022-10-22T03:32:45;100380.81;;;8.26;70.20
61205;BME280;47068;55.780;37.520;2022-10-22T03:35:13;100359.72;;;8.15;70.14
61205;BME280;47068;55.780;37.520;2022-10-22T03:37:41;100385.28;;;8.26;70.00
61205;BME280;47068;55.780;37.520;2022-10-22T03:40:07;100348.91;;;8.07;70.36
61205;BME280;47068;55.780;37.520;2022-10-22T03:42:35;100354.66;;;8.12;70.30
61205;BME280;47068;55.780;37.520;2022-10-22T03:45:08;100388.50;;;8.29;70.08
61205;BME280;47068;55.780;37.520;2022-10-22T03:47:34;100348.19;;;8.05;70.43
61205;BME280;47068;55.780;37.520;2022-10-22T03:50:03;100363.56;;;8.11;70.71
61205;BME280;47068;55.780;37.520;2022-10-22T03:52:34;100388.47;;;8.20;70.38
61205;BME280;47068;55.780;37.520;2022-10-22T03:55:00;100388.03;;;8.24;70.87
61205;BME280;47068;55.780;37.520;2022-10-22T03:57:25;100385.41;;;8.24;70.44
61205;BME280;47068;55.780;37.520;2022-10-22T03:59:50;100388.63;;;8.28;70.89
61205;BME280;47068;55.780;37.520;2022-10-22T04:02:16;100386.00;;;8.28;70.62
61205;BME280;47068;55.780;37.520;2022-10-22T04:04:42;100390.69;;;8.24;70.71
61205;BME280;47068;55.780;37.520;2022-10-22T04:07:07;100382.19;;;8.21;71.04
61205;BME280;47068;55.780;37.520;2022-10-22T04:09:43;100384.00;;;8.20;70.82
61205;BME280;47068;55.780;37.520;2022-10-22T04:12:08;100387.06;;;8.16;70.67
61205;BME280;47068;55.780;37.520;2022-10-22T04:14:34;100351.38;;;7.99;70.52
61205;BME280;47068;55.780;37.520;2022-10-22T04:17:02;100386.06;;;8.17;71.05
61205;BME280;47068;55.780;37.520;2022-10-22T04:19:30;100368.88;;;8.11;70.85
61205;BME280;47068;55.780;37.520;2022-10-22T04:22:00;100385.94;;;8.18;71.47
61205;BME280;47068;55.780;37.520;2022-10-22T04:24:25;100383.28;;;8.18;71.17
61205;BME280;47068;55.780;37.520;2022-10-22T04:26:53;100392.91;;;8.19;70.98
61205;BME280;47068;55.780;37.520;2022-10-22T04:29:21;100344.22;;;7.90;70.67
61205;BME280;47068;55.780;37.520;2022-10-22T04:31:49;100365.19;;;8.03;71.48
61205;BME280;47068;55.780;37.520;2022-10-22T04:34:15;100341.56;;;7.90;71.31
61205;BME280;47068;55.780;37.520;2022-10-22T04:36:42;100287.97;;;7.56;70.94
61205;BME280;47068;55.780;37.520;2022-10-22T04:39:08;100389.28;;;8.20;70.76
61205;BME280;47068;55.780;37.520;2022-10-22T04:41:35;100391.81;;;8.22;71.20
61205;BME280;47068;55.780;37.520;2022-10-22T04:44:01;100396.28;;;8.21;70.78
61205;BME280;47068;55.780;37.520;2022-10-22T04:46:30;100402.16;;;8.25;71.21
61205;BME280;47068;55.780;37.520;2022-10-22T04:49:01;100377.53;;;8.13;70.90
61205;BME280;47068;55.780;37.520;2022-10-22T04:51:28;100402.50;;;8.32;71.01
61205;BME280;47068;55.780;37.520;2022-10-22T04:53:53;100395.97;;;8.36;70.59
61205;BME280;47068;55.780;37.520;2022-10-22T04:56:21;100388.63;;;8.28;70.25
61205;BME280;47068;55.780;37.520;2022-10-22T04:58:49;100408.03;;;8.28;70.44
61205;BME280;47068;55.780;37.520;2022-10-22T05:01:29;100403.97;;;8.24;70.92
61205;BME280;47068;55.780;37.520;2022-10-22T05:03:56;100404.56;;;8.28;70.94
61205;BME280;47068;55.780;37.520;2022-10-22T05:06:22;100400.22;;;8.27;70.96
61205;BME280;47068;55.780;37.520;2022-10-22T05:08:51;100397.97;;;8.22;71.01
61205;BME280;47068;55.780;37.520;2022-10-22T05:11:20;100409.00;;;8.27;70.76
61205;BME280;47068;55.780;37.520;2022-10-22T05:13:49;100405.22;;;8.30;71.03
61205;BME280;47068;55.780;37.520;2022-10-22T05:16:14;100400.81;;;8.30;70.56
61205;BME280;47068;55.780;37.520;2022-10-22T05:18:42;100400.81;;;8.30;70.86
61205;BME280;47068;55.780;37.520;2022-10-22T05:21:15;100403.94;;;8.36;70.84
61205;BME280;47068;55.780;37.520;2022-10-22T05:23:42;100407.13;;;8.39;70.57
61205;BME280;47068;55.780;37.520;2022-10-22T05:26:09;100365.13;;;8.14;70.96
61205;BME280;47068;55.780;37.520;2022-10-22T05:28:35;100410.38;;;8.43;71.30
61205;BME280;47068;55.780;37.520;2022-10-22T05:31:04;100348.44;;;8.02;70.80
61205;BME280;47068;55.780;37.520;2022-10-22T05:33:31;100384.19;;;8.28;71.18
61205;BME280;47068;55.780;37.520;2022-10-22T05:36:00;100415.81;;;8.51;70.86
61205;BME280;47068;55.780;37.520;2022-10-22T05:38:28;100414.75;;;8.53;70.82
61205;BME280;47068;55.780;37.520;2022-10-22T05:41:01;100424.94;;;8.58;70.55
61205;BME280;47068;55.780;37.520;2022-10-22T05:43:26;100400.63;;;8.53;70.33
61205;BME280;47068;55.780;37.520;2022-10-22T05:45:52;100391.16;;;8.50;69.77
61205;BME280;47068;55.780;37.520;2022-10-22T05:48:17;100403.47;;;8.61;69.89
61205;BME280;47068;55.780;37.520;2022-10-22T05:50:45;100418.28;;;8.73;69.41
61205;BME280;47068;55.780;37.520;2022-10-22T05:53:17;100422.38;;;8.77;69.74
61205;BME280;47068;55.780;37.520;2022-10-22T05:55:43;100416.59;;;8.72;69.33
61205;BME280;47068;55.780;37.520;2022-10-22T05:58:10;100428.13;;;8.82;69.44
61205;BME280;47068;55.780;37.520;2022-10-22T06:00:39;100436.91;;;8.83;68.70
61205;BME280;47068;55.780;37.520;2022-10-22T06:03:05;100401.69;;;8.71;68.78
61205;BME280;47068;55.780;37.520;2022-10-22T06:05:34;100421.16;;;9.00;68.19
61205;BME280;47068;55.780;37.520;2022-10-22T06:07:59;100425.66;;;9.09;68.20
61205;BME280;47068;55.780;37.520;2022-10-22T06:10:27;100401.66;;;9.11;67.64
61205;BME280;47068;55.780;37.520;2022-10-22T06:12:55;100423.19;;;9.37;67.65
61205;BME280;47068;55.780;37.520;2022-10-22T06:15:20;100423.47;;;9.34;66.73
61205;BME280;47068;55.780;37.520;2022-10-22T06:17:46;100421.66;;;9.25;67.31
61205;BME280;47068;55.780;37.520;2022-10-22T06:20:13;100433.13;;;9.25;67.22
61205;BME280;47068;55.780;37.520;2022-10-22T06:22:41;100437.59;;;9.25;67.39
61205;BME280;47068;55.780;37.520;2022-10-22T06:25:06;100389.31;;;9.00;67.28
61205;BME280;47068;55.780;37.520;2022-10-22T06:27:35;100422.34;;;9.17;67.29
61205;BME280;47068;55.780;37.520;2022-10-22T06:30:00;100430.25;;;9.07;67.16
61205;BME280;47068;55.780;37.520;2022-10-22T06:32:26;100417.97;;;9.06;67.72
61205;BME280;47068;55.780;37.520;2022-10-22T06:34:51;100425.25;;;9.14;67.15
61205;BME280;47068;55.780;37.520;2022-10-22T06:37:17;100429.03;;;9.12;67.08
61205;BME280;47068;55.780;37.520;2022-10-22T06:39:42;100409.16;;;9.06;67.35
61205;BME280;47068;55.780;37.520;2022-10-22T06:42:08;100434.25;;;9.32;67.17
61205;BME280;47068;55.780;37.520;2022-10-22T06:44:41;100436.19;;;9.49;66.67
61205;BME280;47068;55.780;37.520;2022-10-22T06:47:06;100437.06;;;9.60;66.23
61205;BME280;47068;55.780;37.520;2022-10-22T06:49:34;100445.03;;;9.60;65.74
61205;BME280;47068;55.780;37.520;2022-10-22T06:51:59;100446.69;;;9.51;65.85
61205;BME280;47068;55.780;37.520;2022-10-22T06:54:27;100448.47;;;9.41;66.29
61205;BME280;47068;55.780;37.520;2022-10-22T06:56:52;100436.03;;;9.22;66.30
61205;BME280;47068;55.780;37.520;2022-10-22T06:59:18;100453.50;;;9.34;66.86
61205;BME280;47068;55.780;37.520;2022-10-22T07:01:44;100454.34;;;9.35;66.44
61205;BME280;47068;55.780;37.520;2022-10-22T07:04:10;100388.34;;;9.01;66.77
61205;BME280;47068;55.780;37.520;2022-10-22T07:06:35;100444.69;;;9.34;66.96
61205;BME280;47068;55.780;37.520;2022-10-22T07:09:03;100451.13;;;9.41;67.38
61205;BME280;47068;55.780;37.520;2022-10-22T07:11:36;100458.16;;;9.52;66.31
61205;BME280;47068;55.780;37.520;2022-10-22T07:14:12;100452.56;;;9.64;67.62
61205;BME280;47068;55.780;37.520;2022-10-22T07:16:40;100457.03;;;10.02;67.07
61205;BME280;47068;55.780;37.520;2022-10-22T07:19:11;100448.06;;;10.13;65.85
61205;BME280;47068;55.780;37.520;2022-10-22T07:21:37;100457.00;;;10.12;65.72
61205;BME280;47068;55.780;37.520;2022-10-22T07:24:02;100442.91;;;9.92;65.66
61205;BME280;47068;55.780;37.520;2022-10-22T07:26:28;100453.94;;;9.97;66.07
61205;BME280;47068;55.780;37.520;2022-10-22T07:29:00;100462.63;;;9.99;65.80
61205;BME280;47068;55.780;37.520;2022-10-22T07:31:26;100426.81;;;9.84;65.55
61205;BME280;47068;55.780;37.520;2022-10-22T07:33:52;100446.28;;;9.94;65.58
61205;BME280;47068;55.780;37.520;2022-10-22T07:36:17;100462.34;;;10.12;65.46
61205;BME280;47068;55.780;37.520;2022-10-22T07:38:47;100446.09;;;10.15;65.42
61205;BME280;47068;55.780;37.520;2022-10-22T07:41:14;100449.34;;;10.18;64.63
61205;BME280;47068;55.780;37.520;2022-10-22T07:43:40;100460.25;;;10.06;64.04
61205;BME280;47068;55.780;37.520;2022-10-22T07:46:09;100441.34;;;9.89;64.67
61205;BME280;47068;55.780;37.520;2022-10-22T07:48:37;100397.91;;;9.52;64.29
61205;BME280;47068;55.780;37.520;2022-10-22T07:51:03;100456.63;;;9.87;64.13
61205;BME280;47068;55.780;37.520;2022-10-22T07:53:32;100434.97;;;9.73;64.25
61205;BME280;47068;55.780;37.520;2022-10-22T07:56:00;100455.94;;;9.95;64.07
61205;BME280;47068;55.780;37.520;2022-10-22T07:58:31;100454.78;;;9.98;64.11
61205;BME280;47068;55.780;37.520;2022-10-22T08:00:58;100453.94;;;9.97;63.72
61205;BME280;47068;55.780;37.520;2022-10-22T08:03:25;100419.84;;;9.73;63.81
61205;BME280;47068;55.780;37.520;2022-10-22T08:05:53;100435.50;;;9.86;63.96
61205;BME280;47068;55.780;37.520;2022-10-22T08:08:19;100447.53;;;10.00;62.88
61205;BME280;47068;55.780;37.520;2022-10-22T08:10:48;100454.53;;;10.01;63.74
61205;BME280;47068;55.780;37.520;2022-10-22T08:13:18;100452.13;;;10.07;63.54
61205;BME280;47068;55.780;37.520;2022-10-22T08:15:44;100436.59;;;10.12;63.69
61205;BME280;47068;55.780;37.520;2022-10-22T08:18:13;100448.94;;;10.23;62.94
61205;BME280;47068;55.780;37.520;2022-10-22T08:20:39;100446.66;;;10.18;62.84
61205;BME280;47068;55.780;37.520;2022-10-22T08:23:08;100454.25;;;10.23;62.73
61205;BME280;47068;55.780;37.520;2022-10-22T08:25:34;100458.00;;;10.11;63.58
61205;BME280;47068;55.780;37.520;2022-10-22T08:27:59;100417.97;;;10.03;63.22
61205;BME280;47068;55.780;37.520;2022-10-22T08:30:25;100440.38;;;10.66;63.62
61205;BME280;47068;55.780;37.520;2022-10-22T08:32:54;100420.22;;;10.91;62.55
61205;BME280;47068;55.780;37.520;2022-10-22T08:35:20;100435.28;;;11.27;59.98
61205;BME280;47068;55.780;37.520;2022-10-22T08:37:48;100451.09;;;11.11;59.51
61205;BME280;47068;55.780;37.520;2022-10-22T08:40:22;100431.22;;;11.05;59.49
61205;BME280;47068;55.780;37.520;2022-10-22T08:43:33;100455.56;;;11.11;59.68
61205;BME280;47068;55.780;37.520;2022-10-22T08:49:16;100435.63;;;10.97;60.31
61205;BME280;47068;55.780;37.520;2022-10-22T08:51:46;100445.44;;;11.14;59.75
61205;BME280;47068;55.780;37.520;2022-10-22T08:56:46;100443.25;;;11.10;58.85
61205;BME280;47068;55.780;37.520;2022-10-22T08:59:31;100451.69;;;11.05;59.64
61205;BME280;47068;55.780;37.520;2022-10-22T09:02:07;100409.38;;;11.02;59.85
61205;BME280;47068;55.780;37.520;2022-10-22T09:04:44;100448.41;;;11.38;59.20
61205;BME280;47068;55.780;37.520;2022-10-22T09:07:12;100451.16;;;11.47;58.62
61205;BME280;47068;55.780;37.520;2022-10-22T09:09:42;100446.19;;;11.34;59.54
61205;BME280;47068;55.780;37.520;2022-10-22T09:12:17;100450.09;;;11.39;57.91
61205;BME280;47068;55.780;37.520;2022-10-22T09:14:49;100449.00;;;11.32;58.52
61205;BME280;47068;55.780;37.520;2022-10-22T09:17:21;100451.66;;;11.50;58.13
61205;BME280;47068;55.780;37.520;2022-10-22T09:20:15;100442.22;;;11.56;57.41
61205;BME280;47068;55.780;37.520;2022-10-22T09:25:26;100433.16;;;11.49;57.75
61205;BME280;47068;55.780;37.520;2022-10-22T09:28:00;100433.63;;;11.62;57.37
61205;BME280;47068;55.780;37.520;2022-10-22T09:30:37;100439.28;;;11.59;57.10
61205;BME280;47068;55.780;37.520;2022-10-22T09:33:27;100441.28;;;11.29;58.20
61205;BME280;47068;55.780;37.520;2022-10-22T09:36:02;100443.19;;;11.19;58.67
61205;BME280;47068;55.780;37.520;2022-10-22T09:38:38;100431.97;;;10.98;59.69
61205;BME280;47068;55.780;37.520;2022-10-22T09:41:07;100412.63;;;10.69;59.60
61205;BME280;47068;55.780;37.520;2022-10-22T09:43:33;100444.84;;;10.65;59.79
61205;BME280;47068;55.780;37.520;2022-10-22T09:46:06;100431.88;;;10.53;60.25
61205;BME280;47068;55.780;37.520;2022-10-22T09:48:40;100437.66;;;10.48;60.68
61205;BME280;47068;55.780;37.520;2022-10-22T09:51:24;100445.19;;;10.53;60.62
61205;BME280;47068;55.780;37.520;2022-10-22T09:54:10;100433.88;;;10.51;60.51
61205;BME280;47068;55.780;37.520;2022-10-22T09:56:41;100440.84;;;10.52;60.68
61205;BME280;47068;55.780;37.520;2022-10-22T09:59:17;100428.38;;;10.52;61.55
61205;BME280;47068;55.780;37.520;2022-10-22T10:01:46;100396.00;;;10.30;61.51
61205;BME280;47068;55.780;37.520;2022-10-22T10:04:13;100429.28;;;10.43;60.81
61205;BME280;47068;55.780;37.520;2022-10-22T10:06:43;100431.75;;;10.45;61.00
61205;BME280;47068;55.780;37.520;2022-10-22T10:09:17;100433.31;;;10.47;61.42
61205;BME280;47068;55.780;37.520;2022-10-22T10:28:08;100423.38;;;10.49;61.91
61205;BME280;47068;55.780;37.520;2022-10-22T10:30:54;100415.38;;;10.49;61.44
61205;BME280;47068;55.780;37.520;2022-10-22T10:42:11;100412.50;;;10.97;60.71
61205;BME280;47068;55.780;37.520;2022-10-22T10:45:15;100415.66;;;10.83;59.38
61205;BME280;47068;55.780;37.520;2022-10-22T10:52:59;100413.56;;;10.50;61.23
61205;BME280;47068;55.780;37.520;2022-10-22T10:55:31;100416.06;;;10.51;61.43
61205;BME280;47068;55.780;37.520;2022-10-22T11:00:54;100410.09;;;10.40;61.45
61205;BME280;47068;55.780;37.520;2022-10-22T11:06:05;100400.47;;;10.29;61.80
61205;BME280;47068;55.780;37.520;2022-10-22T11:08:42;100404.13;;;10.28;62.11
61205;BME280;47068;55.780;37.520;2022-10-22T11:11:20;100389.84;;;10.29;62.10
61205;BME280;47068;55.780;37.520;2022-10-22T11:13:54;100401.00;;;10.33;61.31
61205;BME280;47068;55.780;37.520;2022-10-22T11:16:43;100383.00;;;10.17;61.14
61205;BME280;47068;55.780;37.520;2022-10-22T11:19:26;100385.09;;;10.23;61.66
61205;BME280;47068;55.780;37.520;2022-10-22T11:22:02;100392.06;;;10.24;61.80
61205;BME280;47068;55.780;37.520;2022-10-22T11:30:30;100386.06;;;10.22;61.87
61205;BME280;47068;55.780;37.520;2022-10-22T11:33:03;100385.09;;;10.23;61.70
61205;BME280;47068;55.780;37.520;2022-10-22T11:35:33;100382.84;;;10.18;61.92
61205;BME280;47068;55.780;37.520;2022-10-22T11:38:00;100368.44;;;10.11;62.29
61205;BME280;47068;55.780;37.520;2022-10-22T11:43:02;100345.41;;;9.93;61.23
61205;BME280;47068;55.780;37.520;2022-10-22T11:45:37;100379.50;;;10.07;61.19
61205;BME280;47068;55.780;37.520;2022-10-22T11:53:34;100375.16;;;10.15;61.31
61205;BME280;47068;55.780;37.520;2022-10-22T11:56:22;100369.97;;;10.14;60.74
61205;BME280;47068;55.780;37.520;2022-10-22T11:58:49;100374.47;;;10.04;61.43
61205;BME280;47068;55.780;37.520;2022-10-22T12:01:24;100366.41;;;9.96;61.08
61205;BME280;47068;55.780;37.520;2022-10-22T12:06:53;100363.88;;;9.84;62.01
61205;BME280;47068;55.780;37.520;2022-10-22T12:09:25;100351.16;;;9.78;61.77
61205;BME280;47068;55.780;37.520;2022-10-22T12:12:00;100360.78;;;9.89;61.72
61205;BME280;47068;55.780;37.520;2022-10-22T12:14:33;100354.66;;;9.88;62.16
61205;BME280;47068;55.780;37.520;2022-10-22T12:17:10;100359.41;;;9.85;61.40
61205;BME280;47068;55.780;37.520;2022-10-22T12:19:43;100349.78;;;9.74;61.83
61205;BME280;47068;55.780;37.520;2022-10-22T12:22:17;100362.19;;;9.83;62.05
61205;BME280;47068;55.780;37.520;2022-10-22T12:24:51;100358.13;;;9.89;62.11
61205;BME280;47068;55.780;37.520;2022-10-22T12:27:37;100349.34;;;9.88;62.23
61205;BME280;47068;55.780;37.520;2022-10-22T12:30:32;100346.78;;;9.97;62.56
61205;BME280;47068;55.780;37.520;2022-10-22T12:33:03;100342.72;;;10.02;62.73
61205;BME280;47068;55.780;37.520;2022-10-22T12:35:35;100341.59;;;10.05;62.25
61205;BME280;47068;55.780;37.520;2022-10-22T12:38:18;100342.56;;;10.04;61.95
61205;BME280;47068;55.780;37.520;2022-10-22T12:40:47;100348.03;;;10.02;62.73
61205;BME280;47068;55.780;37.520;2022-10-22T12:43:17;100339.38;;;10.00;63.32
61205;BME280;47068;55.780;37.520;2022-10-22T12:45:47;100335.03;;;9.99;62.87
61205;BME280;47068;55.780;37.520;2022-10-22T12:48:20;100338.22;;;10.03;63.32
61205;BME280;47068;55.780;37.520;2022-10-22T12:50:54;100340.88;;;10.03;63.58
61205;BME280;47068;55.780;37.520;2022-10-22T12:53:35;100344.81;;;9.99;63.81
61205;BME280;47068;55.780;37.520;2022-10-22T12:56:11;100335.34;;;9.86;64.34
61205;BME280;47068;55.780;37.520;2022-10-22T13:01:06;100334.38;;;9.68;64.64
61205;BME280;47068;55.780;37.520;2022-10-22T13:03:36;100341.25;;;9.61;64.80
61205;BME280;47068;55.780;37.520;2022-10-22T13:06:32;100340.44;;;9.51;65.09
61205;BME280;47068;55.780;37.520;2022-10-22T13:11:41;100310.00;;;9.17;66.69
61205;BME280;47068;55.780;37.520;2022-10-22T13:14:28;100342.97;;;9.24;66.87
61205;BME280;47068;55.780;37.520;2022-10-22T13:17:18;100350.38;;;9.30;67.24
61205;BME280;47068;55.780;37.520;2022-10-22T13:22:34;100342.13;;;9.23;66.50
61205;BME280;47068;55.780;37.520;2022-10-22T13:27:45;100302.44;;;9.02;66.19
61205;BME280;47068;55.780;37.520;2022-10-22T13:30:30;100337.50;;;9.16;66.32
61205;BME280;47068;55.780;37.520;2022-10-22T13:32:59;100330.66;;;9.13;66.38
61205;BME280;47068;55.780;37.520;2022-10-22T13:35:32;100335.28;;;9.11;66.77
61205;BME280;47068;55.780;37.520;2022-10-22T13:37:59;100335.00;;;9.14;66.80
61205;BME280;47068;55.780;37.520;2022-10-22T13:40:25;100329.28;;;9.19;68.03
61205;BME280;47068;55.780;37.520;2022-10-22T13:42:50;100308.59;;;9.03;67.74
61205;BME280;47068;55.780;37.520;2022-10-22T13:45:16;100319.50;;;9.09;68.09
61205;BME280;47068;55.780;37.520;2022-10-22T13:47:49;100294.31;;;8.94;68.31
61205;BME280;47068;55.780;37.520;2022-10-22T13:50:17;100329.53;;;9.16;67.96
61205;BME280;47068;55.780;37.520;2022-10-22T13:52:54;100330.53;;;9.15;67.78
61205;BME280;47068;55.780;37.520;2022-10-22T13:55:25;100324.66;;;9.01;68.11
61205;BME280;47068;55.780;37.520;2022-10-22T13:58:08;100321.72;;;9.04;68.16
61205;BME280;47068;55.780;37.520;2022-10-22T14:00:49;100316.41;;;9.04;68.78
61205;BME280;47068;55.780;37.520;2022-10-22T14:03:21;100298.41;;;8.98;69.11
61205;BME280;47068;55.780;37.520;2022-10-22T14:05:47;100301.47;;;9.03;69.12
61205;BME280;47068;55.780;37.520;2022-10-22T14:08:19;100320.03;;;9.03;69.00
61205;BME280;47068;55.780;37.520;2022-10-22T14:10:45;100308.16;;;9.27;66.73
61205;BME280;47068;55.780;37.520;2022-10-22T14:13:14;100250.47;;;9.09;66.70
61205;BME280;47068;55.780;37.520;2022-10-22T14:15:41;100309.00;;;9.46;66.30
61205;BME280;47068;55.780;37.520;2022-10-22T14:18:11;100302.84;;;9.46;66.08
61205;BME280;47068;55.780;37.520;2022-10-22T14:20:40;100302.41;;;9.41;65.46
61205;BME280;47068;55.780;37.520;2022-10-22T14:23:14;100270.31;;;9.25;65.56
61205;BME280;47068;55.780;37.520;2022-10-22T14:25:41;100302.13;;;9.44;65.84
61205;BME280;47068;55.780;37.520;2022-10-22T14:28:12;100219.47;;;9.00;66.45
61205;BME280;47068;55.780;37.520;2022-10-22T14:30:39;100311.09;;;9.53;65.54
61205;BME280;47068;55.780;37.520;2022-10-22T14:33:18;100205.22;;;8.82;65.06